Spirit Lake, IA

8:38 PM CDT on April 20, 2015 (GMT -0500)
Dickinson Co. Courthouse | | Change Station
CLOSE
Current Station
Personal Weather Station
Location: Spirit Lake, IA
Elevation: 1470 ft
Nearby Weather Stations
Active Advisory: Special Statement Active Notice: Public Information Statement

Elev 1470 ft 43.42 °N, 95.10 °W | Updated 3 seconds ago

Partly Cloudy
Partly Cloudy
41.6 °F
Feels Like 37 °F
N
7.3
Wind Variable Wind from NW
Gusts 11.5 mph

Today
High -- | Low -- °F
--% Chance of Precip.
Yesterday
High -- | Low -- °F
Precip. -- in
6:30 AM 8:09 PM
Waxing Crescent, 7% visible
Pressure 29.66 in
Visibility 10.0 miles
Clouds Overcast 7500 ft
Windchill 37 °F
Dew Point 27 °F
Humidity 55%
Rainfall 0.00 in
Snow Depth Not available.
UV 0 out of 12
Pollen 11.10 out of 12
Air Quality Not available.
Flu Activity Local Activity
METAR KMJQ 210132Z AUTO 31009KT 10SM OVC075 05/M02 A2966 RMK AO2

More Conditions Fewer Conditions

Pressure 29.66 in
Visibility 10.0 miles
Clouds Overcast 7500 ft
Windchill 37 °F
Dew Point 27 °F
Humidity 55%
Rainfall 0.00 in
Snow Depth Not available.
UV 0 out of 12
Pollen 11.10 out of 12
Air Quality Not available.
Flu Activity Local Activity
METAR KMJQ 210132Z AUTO 31009KT 10SM OVC075 05/M02 A2966 RMK AO2

More Conditions Fewer Conditions

10-Day Weather Forecast

Almanac

Astronomy

Apr. 20, 2015 Rise Set
Actual Time
Civil Twilight
Nautical Twilight
Astronomical Twilight
Moon
Length of Visible Light
Length of Day
Tomorrow will be .
, % of the Moon is Illuminated

Today's Extremes

State Highs State Lows

Community

WunderPhotos

Upload Photos

1,815,276 photos uploaded!

WunderBlogs® & News

Nearby

Air Quality

  Air Quality AQ Index Pollutant
Not available.

Snow Depth

Station Depth Elevation

Earthquake Activity

City Distance Mag. Time & Date
Minimum magnitude displayed is 2.5.

Coastal Water Temperatures

Place Temperature

Stations

Nearby Weather Stations

Station Location Temp. Windchill Dew Point Humidity Wind Precip. Elev Updated Type
                   
Special Statement
Statement as of 2:43 PM CDT on April 20, 2015

... Very high fire danger expected again Tuesday afternoon...

Dry conditions... combined with rather low humidity values... and
gusty northerly winds will combine to create very high fire danger on
Tuesday. Winds Tuesday afternoon may gust above 30 mph.

Any burning activities should be postponed until better weather
conditions develop. Those with outdoor activities should use extra
caution when working outside... as any spark could lead to wildfire
development.


Dux